TimeCST,TemperatureF,Dew PointF,Humidity,Sea Level PressureIn,VisibilityMPH,Wind Direction,Wind SpeedMPH,Gust SpeedMPH,PrecipitationIn,Events,Conditions,WindDirDegrees,DateUTC
12:52 AM,39.0,30.9,73,30.38,10.0,SE,3.5,-,N/A,,Clear,130,2012-11-14 06:52:00
1:52 AM,39.0,30.9,73,30.38,10.0,ESE,4.6,-,N/A,,Clear,120,2012-11-14 07:52:00
2:52 AM,39.0,28.9,67,30.38,10.0,East,4.6,-,N/A,,Clear,100,2012-11-14 08:52:00
3:52 AM,35.1,27.0,72,30.38,10.0,East,4.6,-,N/A,,Clear,100,2012-11-14 09:52:00
4:52 AM,28.0,24.1,85,30.39,10.0,East,3.5,-,N/A,,Clear,100,2012-11-14 10:52:00
5:52 AM,28.9,24.1,82,30.39,10.0,East,4.6,-,N/A,,Clear,90,2012-11-14 11:52:00
6:52 AM,27.0,21.9,81,30.40,10.0,Calm,Calm,-,N/A,,Clear,0,2012-11-14 12:52:00
7:52 AM,30.9,27.0,85,30.41,10.0,Calm,Calm,-,N/A,,Clear,0,2012-11-14 13:52:00
8:52 AM,42.1,28.9,60,30.42,10.0,SE,3.5,-,N/A,,Clear,140,2012-11-14 14:52:00
9:52 AM,48.9,30.0,48,30.41,10.0,SSE,4.6,-,N/A,,Clear,150,2012-11-14 15:52:00
10:52 AM,54.0,26.1,34,30.39,10.0,South,5.8,-,N/A,,Clear,170,2012-11-14 16:52:00
11:52 AM,57.0,26.1,30,30.37,10.0,South,9.2,-,N/A,,Clear,180,2012-11-14 17:52:00
12:52 PM,59.0,25.0,27,30.34,10.0,SSW,9.2,-,N/A,,Clear,210,2012-11-14 18:52:00
1:52 PM,59.0,25.0,27,30.32,10.0,South,11.5,-,N/A,,Clear,180,2012-11-14 19:52:00
2:52 PM,59.0,25.0,27,30.30,10.0,South,13.8,-,N/A,,Clear,170,2012-11-14 20:52:00
3:52 PM,57.0,26.1,30,30.30,10.0,South,10.4,-,N/A,,Clear,190,2012-11-14 21:52:00
4:52 PM,53.1,26.1,35,30.29,10.0,South,6.9,-,N/A,,Clear,170,2012-11-14 22:52:00
5:52 PM,44.1,27.0,51,30.28,10.0,SE,3.5,-,N/A,,Clear,140,2012-11-14 23:52:00
6:52 PM,39.0,26.1,60,30.30,10.0,SE,4.6,-,N/A,,Clear,130,2012-11-15 00:52:00
7:52 PM,37.9,27.0,65,30.31,10.0,SE,3.5,-,N/A,,Clear,130,2012-11-15 01:52:00
8:52 PM,37.0,27.0,67,30.30,10.0,SE,4.6,-,N/A,,Clear,130,2012-11-15 02:52:00
9:52 PM,35.1,27.0,72,30.30,10.0,ESE,3.5,-,N/A,,Clear,120,2012-11-15 03:52:00
10:52 PM,37.0,28.0,70,30.29,10.0,East,4.6,-,N/A,,Clear,90,2012-11-15 04:52:00
11:52 PM,36.0,27.0,70,30.28,10.0,ESE,4.6,-,N/A,,Clear,110,2012-11-15 05:52:00